createdAt,value
2023-02-17T00:01:38.787Z,101002.91
2023-02-17T00:04:06.452Z,101002.56
2023-02-17T00:06:34.084Z,101001.03
2023-02-17T00:09:01.956Z,100998.69
2023-02-17T00:11:32.302Z,100998.53
2023-02-17T00:14:02.271Z,100995.31
2023-02-17T00:16:30.520Z,100988.16
2023-02-17T00:19:01.883Z,100995.31
2023-02-17T00:21:32.793Z,100983.41
2023-02-17T00:24:00.690Z,100990.94
2023-02-17T00:26:28.562Z,100991.31
2023-02-17T00:28:56.536Z,100992.66
2023-02-17T00:31:25.229Z,100989.28
2023-02-17T00:33:56.709Z,100982.47
2023-02-17T00:36:25.092Z,100982.81
2023-02-17T00:38:54.522Z,100978.47
2023-02-17T00:41:22.747Z,100984.28
2023-02-17T00:43:51.052Z,100985.09
2023-02-17T00:46:19.779Z,100986.47
2023-02-17T00:48:49.941Z,100983.84
2023-02-17T00:51:20.886Z,100990.25
2023-02-17T00:53:48.751Z,100991.97
2023-02-17T00:56:16.598Z,101001.72
2023-02-17T00:58:44.420Z,100998.72
2023-02-17T01:01:14.881Z,100994.75
2023-02-17T01:03:44.597Z,100992.34
2023-02-17T01:06:22.761Z,100987.19
2023-02-17T01:08:50.540Z,100981.06
2023-02-17T01:11:23.795Z,100978.72
2023-02-17T01:13:51.472Z,100978.91
2023-02-17T01:16:22.706Z,100979.22
2023-02-17T01:18:50.717Z,100986.56
2023-02-17T01:21:24.306Z,100977.88
2023-02-17T01:23:54.268Z,100978.72
2023-02-17T01:26:24.708Z,100979.56
2023-02-17T01:28:56.307Z,100971.53
2023-02-17T01:31:24.892Z,100979.72
2023-02-17T01:33:52.524Z,100963.53
2023-02-17T01:36:21.733Z,100956.84
2023-02-17T01:38:50.935Z,100966.56
2023-02-17T01:41:21.180Z,100964.22
2023-02-17T01:44:11.506Z,100959.53
2023-02-17T01:46:43.795Z,100962.25
2023-02-17T01:49:30.401Z,100955.87
2023-02-17T01:52:04.484Z,100957.41
2023-02-17T01:54:42.340Z,100954.22
2023-02-17T01:57:11.962Z,100948.38
2023-02-17T01:59:39.954Z,100948.87
2023-02-17T02:02:08.156Z,100945.50
2023-02-17T02:04:41.774Z,100947.19
2023-02-17T02:07:19.642Z,100938.19
2023-02-17T02:09:56.138Z,100943.19
2023-02-17T02:12:29.272Z,100948.16
2023-02-17T02:15:01.785Z,100949.50
2023-02-17T02:17:41.324Z,100939.81
2023-02-17T02:20:09.550Z,100932.31
2023-02-17T02:23:14.832Z,100932.28
2023-02-17T02:26:16.691Z,100944.31
2023-02-17T02:28:52.397Z,100931.25
2023-02-17T02:31:25.873Z,100925.75
2023-02-17T02:34:09.212Z,100931.75
2023-02-17T02:37:03.211Z,100933.69
2023-02-17T02:39:36.107Z,100927.72
2023-02-17T02:42:11.064Z,100921.69
2023-02-17T02:44:41.330Z,100924.00
2023-02-17T02:47:37.847Z,100921.16
2023-02-17T02:50:06.136Z,100922.72
2023-02-17T02:52:58.141Z,100918.41
2023-02-17T02:55:44.727Z,100925.44
2023-02-17T02:58:19.719Z,100928.13
2023-02-17T03:01:06.961Z,100912.94
2023-02-17T03:03:40.284Z,100915.09
2023-02-17T03:06:20.971Z,100915.97
2023-02-17T03:09:04.088Z,100914.78
2023-02-17T03:11:35.185Z,100919.09
2023-02-17T03:14:09.778Z,100916.13
2023-02-17T03:16:42.187Z,100929.31
2023-02-17T03:19:12.164Z,100922.97
2023-02-17T03:21:48.643Z,100928.31
2023-02-17T03:24:18.910Z,100938.84
2023-02-17T03:26:48.996Z,100932.16
2023-02-17T03:29:16.809Z,100932.50
2023-02-17T03:31:44.584Z,100935.16
2023-02-17T03:34:14.605Z,100928.66
2023-02-17T03:36:42.231Z,100934.16
2023-02-17T03:39:09.873Z,100925.47
2023-02-17T03:41:38.059Z,100929.97
2023-02-17T03:44:08.641Z,100940.66
2023-02-17T03:46:36.666Z,100934.97
2023-02-17T03:49:09.265Z,100938.31
2023-02-17T03:51:36.892Z,100938.16
2023-02-17T03:54:04.999Z,100942.97
2023-02-17T03:56:33.233Z,100947.00
2023-02-17T03:59:01.016Z,100936.81
2023-02-17T04:01:28.740Z,100947.00
2023-02-17T04:03:58.900Z,100936.31
2023-02-17T04:06:26.765Z,100929.63
2023-02-17T04:08:54.416Z,100930.28
2023-02-17T04:11:22.138Z,100931.78
2023-02-17T04:13:54.372Z,100923.41
2023-02-17T04:16:23.441Z,100927.75
2023-02-17T04:18:53.893Z,100941.59
2023-02-17T04:21:21.536Z,100941.41
2023-02-17T04:23:49.278Z,100934.56
2023-02-17T04:26:16.897Z,100935.06
2023-02-17T04:28:45.105Z,100913.88
2023-02-17T04:31:15.400Z,100923.41
2023-02-17T04:33:43.094Z,100922.91
2023-02-17T04:36:11.568Z,100918.72
2023-02-17T04:38:42.035Z,100920.06
2023-02-17T04:41:09.629Z,100926.91
2023-02-17T04:43:39.709Z,100922.75
2023-02-17T04:46:07.768Z,100921.41
2023-02-17T04:48:35.583Z,100925.25
2023-02-17T04:51:03.199Z,100927.25
2023-02-17T04:53:33.382Z,100926.75
2023-02-17T04:56:00.983Z,100917.22
2023-02-17T04:58:28.680Z,100919.22
2023-02-17T05:01:00.282Z,100923.91
2023-02-17T05:03:27.919Z,100925.72
2023-02-17T05:05:55.690Z,100934.41
2023-02-17T05:08:23.274Z,100929.56
2023-02-17T05:10:53.938Z,100921.06
2023-02-17T05:13:21.572Z,100927.09
2023-02-17T05:15:49.283Z,100935.44
2023-02-17T05:18:16.929Z,100933.81
2023-02-17T05:20:44.568Z,100931.13
2023-02-17T05:23:12.244Z,100929.63
2023-02-17T05:25:41.143Z,100923.81
2023-02-17T05:28:08.755Z,100927.12
2023-02-17T05:30:38.528Z,100929.50
2023-02-17T05:33:08.602Z,100921.28
2023-02-17T05:35:40.212Z,100923.94
2023-02-17T05:38:07.804Z,100931.16
2023-02-17T05:40:35.400Z,100926.28
2023-02-17T05:43:03.093Z,100922.75
2023-02-17T05:45:30.777Z,100928.09
2023-02-17T05:47:58.398Z,100915.50
2023-02-17T05:50:26.290Z,100924.34
2023-02-17T05:52:56.257Z,100922.81
2023-02-17T05:55:23.896Z,100925.28
2023-02-17T05:57:51.508Z,100925.25
2023-02-17T06:00:19.387Z,100928.41
2023-02-17T06:02:47.018Z,100930.25
2023-02-17T06:05:15.179Z,100926.50
2023-02-17T06:07:43.936Z,100925.97
2023-02-17T06:10:12.061Z,100925.59
2023-02-17T06:12:39.695Z,100928.56
2023-02-17T06:15:10.198Z,100923.03
2023-02-17T06:17:39.018Z,100923.34
2023-02-17T06:20:07.827Z,100927.50
2023-02-17T06:22:39.823Z,100934.19
2023-02-17T06:25:07.876Z,100948.56
2023-02-17T06:27:35.906Z,100944.34
2023-02-17T06:30:06.627Z,100949.63
2023-02-17T06:32:34.753Z,100944.19
2023-02-17T06:35:02.483Z,100952.13
2023-02-17T06:37:30.437Z,100946.47
2023-02-17T06:39:59.066Z,100946.66
2023-02-17T06:42:26.860Z,100948.56
2023-02-17T06:44:54.970Z,100939.41
2023-02-17T06:47:22.599Z,100954.91
2023-02-17T06:49:50.808Z,100955.72
2023-02-17T06:52:18.599Z,100955.75
2023-02-17T06:54:47.259Z,100944.50
2023-02-17T06:57:14.909Z,100948.47
2023-02-17T06:59:42.510Z,100942.41
2023-02-17T07:02:16.379Z,100944.38
2023-02-17T07:04:44.547Z,100954.06
2023-02-17T07:07:12.751Z,100955.13
2023-02-17T07:09:44.036Z,100946.03
2023-02-17T07:12:11.771Z,100958.13
2023-02-17T07:14:39.499Z,100949.09
2023-02-17T07:17:07.135Z,100957.84
2023-02-17T07:19:34.758Z,100958.78
2023-02-17T07:22:02.534Z,100953.44
2023-02-17T07:24:30.339Z,100956.41
2023-02-17T07:26:58.020Z,100951.91
2023-02-17T07:29:25.678Z,100955.31
2023-02-17T07:31:55.432Z,100958.87
2023-02-17T07:34:23.280Z,100944.19
2023-02-17T07:36:51.157Z,100941.09
2023-02-17T07:39:19.782Z,100943.91
2023-02-17T07:41:49.902Z,100944.78
2023-02-17T07:44:17.517Z,100938.19
2023-02-17T07:46:45.157Z,100939.88
2023-02-17T07:49:14.829Z,100940.78
2023-02-17T07:51:42.611Z,100935.84
2023-02-17T07:54:14.316Z,100927.22
2023-02-17T07:56:42.058Z,100928.97
2023-02-17T07:59:16.248Z,100943.97
2023-02-17T08:01:44.230Z,100924.53
2023-02-17T08:04:14.376Z,100929.38
2023-02-17T08:06:42.013Z,100926.69
2023-02-17T08:09:29.744Z,100929.66
2023-02-17T08:12:15.314Z,100926.31
2023-02-17T08:14:43.015Z,100926.56
2023-02-17T08:17:10.686Z,100920.53
2023-02-17T08:19:48.165Z,100930.91
2023-02-17T08:22:19.751Z,100941.47
2023-02-17T08:24:47.796Z,100944.75
2023-02-17T08:27:16.653Z,100951.69
2023-02-17T08:29:45.096Z,100950.69
2023-02-17T08:32:14.170Z,100950.84
2023-02-17T08:34:41.999Z,100961.19
2023-02-17T08:37:12.824Z,100949.03
2023-02-17T08:39:40.581Z,100942.03
2023-02-17T08:42:08.238Z,100951.97
2023-02-17T08:44:37.704Z,100946.31
2023-02-17T08:47:06.384Z,100939.63
2023-02-17T08:49:37.030Z,100940.69
2023-02-17T08:52:05.434Z,100933.91
2023-02-17T08:54:35.589Z,100942.56
2023-02-17T08:57:03.469Z,100937.91
2023-02-17T08:59:31.316Z,100938.91
2023-02-17T09:01:59.044Z,100936.19
2023-02-17T09:04:27.057Z,100943.94
2023-02-17T09:06:57.285Z,100946.97
2023-02-17T09:09:28.883Z,100940.53
2023-02-17T09:11:58.705Z,100944.53
2023-02-17T09:14:26.678Z,100931.59
2023-02-17T09:16:55.577Z,100934.41
2023-02-17T09:19:25.221Z,100939.84
2023-02-17T09:21:53.060Z,100938.59
2023-02-17T09:24:20.858Z,100933.59
2023-02-17T09:26:48.602Z,100941.94
2023-02-17T09:29:16.199Z,100932.50
2023-02-17T09:31:47.778Z,100926.88
2023-02-17T09:34:15.608Z,100928.63
2023-02-17T09:36:45.822Z,100930.03
2023-02-17T09:39:14.958Z,100921.72
2023-02-17T09:41:47.748Z,100927.16
2023-02-17T09:44:20.118Z,100924.41
2023-02-17T09:47:08.402Z,100928.31
2023-02-17T09:50:05.120Z,100933.47
2023-02-17T09:53:02.380Z,100929.47
2023-02-17T09:55:34.646Z,100926.28
2023-02-17T09:58:28.013Z,100922.25
2023-02-17T10:01:02.336Z,100917.25
2023-02-17T10:03:43.178Z,100914.16
2023-02-17T10:06:10.930Z,100913.38
2023-02-17T10:08:57.499Z,100906.72
2023-02-17T10:11:40.658Z,100899.78
2023-02-17T10:14:18.465Z,100890.59
2023-02-17T10:17:36.555Z,100897.16
2023-02-17T10:20:11.932Z,100892.31
2023-02-17T10:22:41.120Z,100881.75
2023-02-17T10:25:21.243Z,100882.25
2023-02-17T10:28:05.047Z,100877.06
2023-02-17T10:30:46.178Z,100871.47
2023-02-17T10:33:18.424Z,100871.41
2023-02-17T10:36:09.095Z,100860.56
2023-02-17T10:38:53.571Z,100875.41
2023-02-17T10:41:29.050Z,100876.88
2023-02-17T10:43:57.102Z,100871.13
2023-02-17T10:46:31.254Z,100868.69
2023-02-17T10:49:02.361Z,100872.81
2023-02-17T10:51:32.473Z,100872.53
2023-02-17T10:54:22.926Z,100860.84
2023-02-17T10:57:06.627Z,100861.66
2023-02-17T10:59:43.881Z,100857.06
2023-02-17T11:02:23.026Z,100849.84
2023-02-17T11:04:55.025Z,100852.34
2023-02-17T11:07:35.193Z,100849.84
2023-02-17T11:10:20.586Z,100853.63
2023-02-17T11:12:49.786Z,100841.09
2023-02-17T11:15:28.087Z,100838.75
2023-02-17T11:18:01.537Z,100835.84
2023-02-17T11:20:35.720Z,100836.09
2023-02-17T11:23:25.299Z,100822.38
2023-02-17T11:26:02.242Z,100827.44
2023-02-17T11:28:30.642Z,100820.63
2023-02-17T11:31:03.123Z,100818.34
2023-02-17T11:33:42.502Z,100814.94
2023-02-17T11:36:24.616Z,100810.09
2023-02-17T11:38:52.574Z,100805.47
2023-02-17T11:41:20.889Z,100797.56
2023-02-17T11:43:58.618Z,100796.59
2023-02-17T11:46:29.736Z,100799.66
2023-02-17T11:49:06.560Z,100796.84
2023-02-17T11:51:59.490Z,100797.53
2023-02-17T11:55:01.383Z,100787.13
2023-02-17T11:57:29.411Z,100795.50
2023-02-17T12:00:22.750Z,100786.31
2023-02-17T12:03:22.159Z,100786.56
2023-02-17T12:06:25.121Z,100781.94
2023-02-17T12:09:24.294Z,100780.78
2023-02-17T12:12:00.993Z,100780.78
2023-02-17T12:15:04.276Z,100784.44
2023-02-17T12:17:53.330Z,100771.81
2023-02-17T12:20:49.826Z,100752.69
2023-02-17T12:23:20.119Z,100760.94
2023-02-17T12:26:32.085Z,100747.50
2023-02-17T12:29:24.171Z,100748.53
2023-02-17T12:32:38.112Z,100740.16
2023-02-17T12:35:53.168Z,100745.13
2023-02-17T12:38:31.699Z,100744.88
2023-02-17T12:41:17.655Z,100754.53
2023-02-17T12:43:50.756Z,100749.25
2023-02-17T12:46:30.341Z,100752.66
2023-02-17T12:49:05.978Z,100740.50
2023-02-17T12:51:41.999Z,100744.81
2023-02-17T12:54:25.621Z,100748.63
2023-02-17T12:57:11.254Z,100749.94
2023-02-17T12:59:46.552Z,100745.03
2023-02-17T13:02:17.010Z,100745.94
2023-02-17T13:04:47.093Z,100736.88
2023-02-17T13:07:45.430Z,100740.97
2023-02-17T13:10:28.075Z,100741.56
2023-02-17T13:13:01.398Z,100730.91
2023-02-17T13:15:39.857Z,100734.00
2023-02-17T13:18:12.377Z,100724.78
2023-02-17T13:20:45.782Z,100728.47
2023-02-17T13:23:27.520Z,100736.53
2023-02-17T13:26:16.872Z,100737.28
2023-02-17T13:28:45.410Z,100736.38
2023-02-17T13:31:21.091Z,100743.22
2023-02-17T13:33:52.367Z,100740.25
2023-02-17T13:36:31.466Z,100732.34
2023-02-17T13:39:03.050Z,100727.41
2023-02-17T13:41:44.302Z,100730.69
2023-02-17T13:44:30.625Z,100730.56
2023-02-17T13:47:23.377Z,100721.94
2023-02-17T13:49:56.881Z,100720.00
2023-02-17T13:52:27.686Z,100712.41
2023-02-17T13:54:58.344Z,100709.62
2023-02-17T13:57:31.164Z,100709.50
2023-02-17T14:00:09.173Z,100705.59
2023-02-17T14:02:40.499Z,100692.34
2023-02-17T14:05:20.257Z,100690.47
2023-02-17T14:07:49.690Z,100687.97
2023-02-17T14:10:24.840Z,100691.25
2023-02-17T14:12:56.292Z,100690.53
2023-02-17T14:15:27.453Z,100692.81
2023-02-17T14:17:56.896Z,100691.41
2023-02-17T14:20:37.708Z,100690.38
2023-02-17T14:23:14.510Z,100688.75
2023-02-17T14:25:47.251Z,100688.56
2023-02-17T14:28:30.608Z,100688.34
2023-02-17T14:31:09.618Z,100681.06
2023-02-17T14:33:40.517Z,100676.44
2023-02-17T14:36:14.090Z,100673.38
2023-02-17T14:38:42.988Z,100673.25
2023-02-17T14:41:13.268Z,100684.59
2023-02-17T14:43:40.916Z,100677.06
2023-02-17T14:46:08.845Z,100675.81
2023-02-17T14:48:40.487Z,100674.72
2023-02-17T14:51:16.731Z,100674.84
2023-02-17T14:53:46.988Z,100678.88
2023-02-17T14:56:35.290Z,100665.91
2023-02-17T14:59:03.213Z,100668.97
2023-02-17T15:01:33.445Z,100670.47
2023-02-17T15:04:02.881Z,100661.75
2023-02-17T15:06:43.458Z,100646.28
2023-02-17T15:09:16.906Z,100649.00
2023-02-17T15:11:49.013Z,100638.62
2023-02-17T15:14:20.215Z,100643.22
2023-02-17T15:16:49.149Z,100634.25
2023-02-17T15:19:18.692Z,100641.56
2023-02-17T15:21:51.651Z,100639.56
2023-02-17T15:24:23.352Z,100628.94
2023-02-17T15:26:51.183Z,100628.59
2023-02-17T15:29:22.152Z,100623.66
2023-02-17T15:31:51.502Z,100622.47
2023-02-17T15:34:22.356Z,100627.50
2023-02-17T15:36:52.645Z,100620.66
2023-02-17T15:39:22.536Z,100615.72
2023-02-17T15:41:53.162Z,100604.06
2023-02-17T15:44:26.864Z,100620.69
2023-02-17T15:46:57.295Z,100610.75
2023-02-17T15:49:25.536Z,100625.16
2023-02-17T15:51:55.723Z,100634.19
2023-02-17T15:54:24.547Z,100643.50
2023-02-17T15:56:55.368Z,100647.25
2023-02-17T15:59:27.189Z,100646.50
2023-02-17T16:01:57.875Z,100654.16
2023-02-17T16:04:29.377Z,100638.47
2023-02-17T16:06:58.729Z,100635.62
2023-02-17T16:09:26.407Z,100629.97
2023-02-17T16:11:57.434Z,100621.84
2023-02-17T16:14:29.622Z,100621.91
2023-02-17T16:16:59.767Z,100626.13
2023-02-17T16:19:30.018Z,100621.06
2023-02-17T16:21:57.669Z,100608.88
2023-02-17T16:24:30.011Z,100617.09
2023-02-17T16:27:00.495Z,100613.97
2023-02-17T16:29:28.323Z,100615.91
2023-02-17T16:31:56.468Z,100628.72
2023-02-17T16:34:25.933Z,100617.38
2023-02-17T16:36:58.749Z,100620.53
2023-02-17T16:39:28.953Z,100618.78
2023-02-17T16:41:56.719Z,100617.66
2023-02-17T16:44:24.685Z,100609.22
2023-02-17T16:46:57.795Z,100610.34
2023-02-17T16:49:33.280Z,100610.56
2023-02-17T16:52:03.215Z,100595.63
2023-02-17T16:54:32.374Z,100602.38
2023-02-17T16:57:01.087Z,100601.62
2023-02-17T16:59:31.009Z,100593.72
2023-02-17T17:01:58.880Z,100592.53
2023-02-17T17:04:26.641Z,100591.12
2023-02-17T17:06:54.348Z,100586.22
2023-02-17T17:09:25.427Z,100588.16
2023-02-17T17:11:53.317Z,100598.62
2023-02-17T17:14:23.501Z,100594.72
2023-02-17T17:16:56.557Z,100591.25
2023-02-17T17:19:25.699Z,100582.13
2023-02-17T17:21:54.233Z,100580.13
2023-02-17T17:24:25.196Z,100578.94
2023-02-17T17:26:52.798Z,100569.47
2023-02-17T17:29:23.373Z,100562.03
2023-02-17T17:31:51.180Z,100558.38
2023-02-17T17:34:20.030Z,100563.38
2023-02-17T17:36:50.897Z,100564.06
2023-02-17T17:39:21.991Z,100575.94
2023-02-17T17:41:53.744Z,100572.03
2023-02-17T17:44:21.886Z,100565.63
2023-02-17T17:46:51.883Z,100568.56
2023-02-17T17:49:19.553Z,100570.62
2023-02-17T17:51:47.468Z,100565.25
2023-02-17T17:54:16.560Z,100572.13
2023-02-17T17:56:44.741Z,100570.06
2023-02-17T17:59:13.649Z,100571.09
2023-02-17T18:01:45.136Z,100564.88
2023-02-17T18:04:13.553Z,100562.41
2023-02-17T18:06:51.773Z,100560.31
2023-02-17T18:09:31.773Z,100564.47
2023-02-17T18:12:05.557Z,100556.19
2023-02-17T18:14:34.377Z,100545.00
2023-02-17T18:17:02.183Z,100545.00
2023-02-17T18:19:31.461Z,100546.88
2023-02-17T18:21:59.188Z,100557.66
2023-02-17T18:24:26.972Z,100553.69
2023-02-17T18:26:54.753Z,100554.91
2023-02-17T18:29:22.750Z,100557.84
2023-02-17T18:31:53.186Z,100549.94
2023-02-17T18:34:23.010Z,100548.87
2023-02-17T18:36:50.609Z,100553.19
2023-02-17T18:39:18.296Z,100544.72
2023-02-17T18:41:48.490Z,100528.75
2023-02-17T18:44:18.923Z,100533.25
2023-02-17T18:46:47.986Z,100522.03
2023-02-17T18:49:15.736Z,100521.59
2023-02-17T18:51:45.558Z,100515.97
2023-02-17T18:54:14.119Z,100512.47
2023-02-17T18:56:41.851Z,100510.81
2023-02-17T18:59:12.238Z,100517.25
2023-02-17T19:01:41.003Z,100502.50
2023-02-17T19:04:09.721Z,100507.06
2023-02-17T19:06:40.467Z,100515.37
2023-02-17T19:09:08.398Z,100514.97
2023-02-17T19:11:36.623Z,100517.66
2023-02-17T19:14:05.735Z,100504.78
2023-02-17T19:16:35.959Z,100502.50
2023-02-17T19:19:04.481Z,100494.63
2023-02-17T19:21:35.939Z,100493.34
2023-02-17T19:24:06.552Z,100487.13
2023-02-17T19:26:34.540Z,100504.97
2023-02-17T19:29:02.152Z,100503.72
2023-02-17T19:31:32.319Z,100496.25
2023-02-17T19:34:00.088Z,100492.31
2023-02-17T19:36:27.798Z,100491.25
2023-02-17T19:38:57.941Z,100492.31
2023-02-17T19:41:26.167Z,100489.81
2023-02-17T19:43:54.011Z,100490.00
2023-02-17T19:46:23.112Z,100495.41
2023-02-17T19:48:50.933Z,100491.06
2023-02-17T19:51:18.660Z,100490.22
2023-02-17T19:53:46.321Z,100472.59
2023-02-17T19:56:14.209Z,100467.19
2023-02-17T19:58:44.002Z,100465.94
2023-02-17T20:01:18.029Z,100465.09
2023-02-17T20:03:47.324Z,100463.22
2023-02-17T20:06:21.065Z,100461.19
2023-02-17T20:08:54.457Z,100455.97
2023-02-17T20:11:25.562Z,100440.00
2023-02-17T20:13:57.545Z,100437.31
2023-02-17T20:16:25.361Z,100422.38
2023-02-17T20:18:55.184Z,100415.59
2023-02-17T20:21:26.053Z,100409.22
2023-02-17T20:23:57.313Z,100398.88
2023-02-17T20:26:30.117Z,100400.34
2023-02-17T20:28:59.040Z,100384.16
2023-02-17T20:31:27.742Z,100392.06
2023-02-17T20:33:55.542Z,100386.47
2023-02-17T20:36:23.220Z,100372.78
2023-02-17T20:38:51.519Z,100371.91
2023-02-17T20:41:24.531Z,100362.97
2023-02-17T20:43:53.244Z,100358.13
2023-02-17T20:46:29.692Z,100356.34
2023-02-17T20:48:57.494Z,100354.34
2023-02-17T20:51:27.616Z,100360.62
2023-02-17T20:53:55.340Z,100356.81
2023-02-17T20:56:25.283Z,100360.16
2023-02-17T20:58:54.338Z,100357.97
2023-02-17T21:01:25.740Z,100353.22
2023-02-17T21:03:53.377Z,100350.53
2023-02-17T21:06:30.007Z,100358.53
2023-02-17T21:09:01.077Z,100363.81
2023-02-17T21:11:29.957Z,100365.75
2023-02-17T21:14:00.906Z,100375.41
2023-02-17T21:16:31.341Z,100373.03
2023-02-17T21:19:01.181Z,100384.09
2023-02-17T21:21:29.919Z,100379.53
2023-02-17T21:23:58.649Z,100372.78
2023-02-17T21:26:27.547Z,100375.50
2023-02-17T21:28:55.518Z,100385.87
2023-02-17T21:31:23.409Z,100387.53
2023-02-17T21:33:51.101Z,100388.25
2023-02-17T21:36:19.743Z,100394.41
2023-02-17T21:38:48.374Z,100402.06
2023-02-17T21:41:18.926Z,100398.28
2023-02-17T21:44:04.925Z,100403.72
2023-02-17T21:46:32.863Z,100414.22
2023-02-17T21:49:02.214Z,100415.53
2023-02-17T21:51:38.494Z,100417.75
2023-02-17T21:54:08.539Z,100402.78
2023-02-17T21:56:36.676Z,100427.44
2023-02-17T21:59:05.069Z,100418.72
2023-02-17T22:01:33.013Z,100425.81
2023-02-17T22:04:04.186Z,100426.87
2023-02-17T22:06:37.579Z,100430.66
2023-02-17T22:09:06.940Z,100431.47
2023-02-17T22:11:37.690Z,100432.59
2023-02-17T22:14:11.088Z,100446.41
2023-02-17T22:16:40.624Z,100449.94
2023-02-17T22:19:10.682Z,100438.50
2023-02-17T22:21:39.640Z,100426.34
2023-02-17T22:24:09.929Z,100421.31
2023-02-17T22:26:37.910Z,100409.00
2023-02-17T22:29:06.583Z,100401.94
2023-02-17T22:31:36.811Z,100421.53
2023-02-17T22:34:07.833Z,100418.84
2023-02-17T22:36:40.938Z,100430.13
2023-02-17T22:39:10.050Z,100427.66
2023-02-17T22:41:38.863Z,100421.06
2023-02-17T22:44:06.603Z,100418.25
2023-02-17T22:46:37.011Z,100424.16
2023-02-17T22:49:04.662Z,100432.19
2023-02-17T22:51:36.773Z,100434.31
2023-02-17T22:54:07.880Z,100434.75
2023-02-17T22:56:35.663Z,100438.53
2023-02-17T22:59:04.921Z,100429.22
2023-02-17T23:01:35.239Z,100428.16
2023-02-17T23:04:03.367Z,100436.44
2023-02-17T23:06:38.784Z,100431.03
2023-02-17T23:09:11.337Z,100441.72
2023-02-17T23:11:54.838Z,100429.00
2023-02-17T23:14:34.896Z,100418.38
2023-02-17T23:17:08.592Z,100412.12
2023-02-17T23:19:40.366Z,100402.00
2023-02-17T23:22:11.188Z,100411.06
2023-02-17T23:24:44.357Z,100399.87
2023-02-17T23:27:17.615Z,100406.94
2023-02-17T23:29:45.255Z,100407.78
2023-02-17T23:32:15.230Z,100408.12
2023-02-17T23:34:45.817Z,100402.69
2023-02-17T23:37:13.781Z,100399.06
2023-02-17T23:39:43.697Z,100393.41
2023-02-17T23:42:13.773Z,100393.13
2023-02-17T23:44:44.605Z,100390.66
2023-02-17T23:47:12.878Z,100385.09
2023-02-17T23:49:40.528Z,100386.97
2023-02-17T23:52:11.180Z,100390.75
2023-02-17T23:54:44.415Z,100392.28
2023-02-17T23:57:12.103Z,100385.31
2023-02-17T23:59:41.217Z,100380.03
